createdAt,value
2019-05-16T00:01:22.446Z,3.1
2019-05-16T00:06:29.331Z,3
2019-05-16T00:11:34.521Z,3.7
2019-05-16T00:16:41.845Z,3.4
2019-05-16T00:21:49.501Z,3.3
2019-05-16T00:26:54.813Z,5.1
2019-05-16T00:31:58.989Z,3.3
2019-05-16T00:37:04.657Z,3.3
2019-05-16T00:42:12.444Z,3.6
2019-05-16T00:47:18.668Z,3.7
2019-05-16T00:52:24.249Z,3.7
2019-05-16T00:57:32.365Z,3.6
2019-05-16T01:02:39.041Z,3.7
2019-05-16T01:07:44.398Z,3.5
2019-05-16T01:12:51.720Z,3.6
2019-05-16T01:17:58.712Z,3.8
2019-05-16T01:23:04.344Z,4
2019-05-16T01:28:09.838Z,4
2019-05-16T01:33:15.122Z,4.3
2019-05-16T01:38:22.859Z,4
2019-05-16T01:43:29.312Z,4.3
2019-05-16T01:48:34.493Z,4.3
2019-05-16T01:53:42.052Z,4.3
2019-05-16T01:58:49.804Z,4.3
2019-05-16T02:03:55.366Z,4.2
2019-05-16T02:09:01.751Z,4.5
2019-05-16T02:14:09.151Z,4.5
2019-05-16T02:19:14.923Z,4.5
2019-05-16T02:24:22.640Z,4.8
2019-05-16T02:29:30.870Z,4.9
2019-05-16T02:34:36.346Z,4.9
2019-05-16T02:39:45.117Z,5.3
2019-05-16T02:44:52.096Z,5.3
2019-05-16T02:49:57.336Z,5.2
2019-05-16T02:55:05.634Z,5.1
2019-05-16T03:00:12.897Z,5.5
2019-05-16T03:05:16.960Z,5.5
2019-05-16T03:10:23.756Z,5.9
2019-05-16T03:15:31.835Z,6.4
2019-05-16T03:20:36.916Z,6.3
2019-05-16T03:25:45.184Z,6.5
2019-05-16T03:30:55.742Z,7.1
2019-05-16T03:35:56.131Z,8.3
2019-05-16T03:41:00.763Z,8.1
2019-05-16T03:46:06.258Z,8.4
2019-05-16T03:51:15.232Z,9.2
2019-05-16T03:56:22.921Z,9.4
2019-05-16T04:01:31.089Z,9.3
2019-05-16T04:06:36.796Z,9.1
2019-05-16T04:11:45.046Z,9
2019-05-16T04:16:51.964Z,10
2019-05-16T04:21:57.174Z,9.4
2019-05-16T04:27:05.825Z,8.9
2019-05-16T04:32:11.852Z,9
2019-05-16T04:37:17.159Z,9
2019-05-16T04:42:26.248Z,9
2019-05-16T04:47:34.629Z,8.1
2019-05-16T04:52:42.853Z,8.6
2019-05-16T04:57:51.785Z,7.8
2019-05-16T05:02:57.002Z,8
2019-05-16T05:08:06.104Z,7.8
2019-05-16T05:13:14.452Z,7.8
2019-05-16T05:18:22.283Z,7.7
2019-05-16T05:23:29.929Z,7.6
2019-05-16T05:28:37.457Z,6.7
2019-05-16T05:33:45.844Z,6.7
2019-05-16T05:39:11.913Z,6.5
2019-05-16T05:44:00.790Z,7
2019-05-16T05:49:06.030Z,6
2019-05-16T05:54:12.154Z,6.7
2019-05-16T05:59:19.927Z,8.7
2019-05-16T06:04:25.351Z,6.3
2019-05-16T06:09:33.866Z,6
2019-05-16T06:14:42.563Z,7.5
2019-05-16T06:19:49.731Z,6.3
2019-05-16T06:24:55.137Z,5.8
2019-05-16T06:30:01.520Z,10.8
2019-05-16T06:35:10.479Z,9
2019-05-16T06:40:16.000Z,5.2
2019-05-16T06:45:21.458Z,5.7
2019-05-16T06:50:25.250Z,5.2
2019-05-16T06:55:30.474Z,5.8
2019-05-16T07:00:34.466Z,5.6
2019-05-16T07:05:41.430Z,5.3
2019-05-16T07:10:46.582Z,6.4
2019-05-16T07:15:54.257Z,5.9
2019-05-16T07:21:01.389Z,5.6
2019-05-16T07:26:06.952Z,4.4
2019-05-16T07:31:22.259Z,5.3
2019-05-16T07:36:16.966Z,6.2
2019-05-16T07:41:24.999Z,5.2
2019-05-16T07:46:32.435Z,4.9
2019-05-16T07:51:40.147Z,4.8
2019-05-16T07:56:45.447Z,8.7
2019-05-16T08:01:54.654Z,6
2019-05-16T08:07:01.600Z,5.3
2019-05-16T08:12:06.895Z,4.2
2019-05-16T08:17:04.673Z,4.5
2019-05-16T08:22:11.678Z,5.7
2019-05-16T08:27:17.036Z,5.9
2019-05-16T08:32:25.427Z,5.9
2019-05-16T08:37:46.868Z,5.7
2019-05-16T08:42:35.977Z,5.3
2019-05-16T08:47:45.031Z,5.6
2019-05-16T08:52:44.979Z,6.1
2019-05-16T08:57:53.470Z,5.5
2019-05-16T09:02:57.225Z,5.6
2019-05-16T09:08:05.892Z,5.3
2019-05-16T09:13:10.917Z,6.1
2019-05-16T09:18:18.756Z,6.1
2019-05-16T09:23:23.948Z,5.9
2019-05-16T09:28:31.190Z,6.4
2019-05-16T09:33:38.417Z,5.2
2019-05-16T09:38:42.150Z,5.1
2019-05-16T09:43:49.749Z,5.4
2019-05-16T09:49:20.258Z,5.3
2019-05-16T09:54:00.525Z,5.5
2019-05-16T09:59:07.667Z,6.4
2019-05-16T10:04:12.988Z,5.3
2019-05-16T10:09:20.860Z,5.4
2019-05-16T10:14:27.764Z,6.7
2019-05-16T10:19:36.639Z,6.2
2019-05-16T10:24:42.129Z,5.8
2019-05-16T10:29:49.389Z,6.6
2019-05-16T10:34:54.632Z,6.2
2019-05-16T10:40:01.565Z,5.9
2019-05-16T10:45:09.674Z,5.8
2019-05-16T10:50:17.358Z,6.4
2019-05-16T10:55:22.753Z,5.9
2019-05-16T11:01:18.703Z,5.8
2019-05-16T11:05:40.143Z,5.7
2019-05-16T11:10:38.080Z,5.8
2019-05-16T11:15:43.498Z,5.7
2019-05-16T11:20:50.216Z,5.7
2019-05-16T11:25:58.384Z,5.6
2019-05-16T11:31:07.318Z,5.8
2019-05-16T11:36:16.464Z,5.5
2019-05-16T11:41:22.088Z,5.4
2019-05-16T11:46:29.060Z,6
2019-05-16T11:51:34.477Z,5.3
2019-05-16T11:56:42.545Z,5.2
2019-05-16T12:01:50.376Z,5.4
2019-05-16T12:06:57.293Z,5.7
2019-05-16T12:12:05.311Z,5.8
2019-05-16T12:17:03.115Z,6
2019-05-16T12:22:10.777Z,5.5
2019-05-16T12:27:18.131Z,5.6
2019-05-16T12:32:23.644Z,5.6
2019-05-16T12:37:31.126Z,4.8
2019-05-16T12:42:37.382Z,4.6
2019-05-16T12:47:42.558Z,5.3
2019-05-16T12:52:50.646Z,5.1
2019-05-16T12:58:13.402Z,5
2019-05-16T13:03:00.984Z,5.6
2019-05-16T13:08:05.717Z,5.8
2019-05-16T13:13:10.781Z,5.8
2019-05-16T13:18:17.794Z,5.7
2019-05-16T13:23:23.351Z,5.6
2019-05-16T13:28:31.067Z,5.8
2019-05-16T13:33:37.820Z,5.8
2019-05-16T13:38:43.193Z,5.4
2019-05-16T13:43:51.705Z,6.4
2019-05-16T13:48:56.701Z,7
2019-05-16T13:54:01.853Z,7.1
2019-05-16T13:59:08.728Z,6.5
2019-05-16T14:04:12.490Z,6.6
2019-05-16T14:09:17.502Z,6.3
2019-05-16T14:14:42.038Z,6.6
2019-05-16T14:19:28.347Z,6
2019-05-16T14:24:33.436Z,5.6
2019-05-16T14:29:41.529Z,6.6
2019-05-16T14:34:52.059Z,6.2
2019-05-16T14:39:49.668Z,6
2019-05-16T14:45:11.926Z,5.7
2019-05-16T14:50:00.453Z,6
2019-05-16T14:55:08.201Z,4.9
2019-05-16T15:00:13.633Z,5.7
2019-05-16T15:05:22.068Z,6.3
2019-05-16T15:10:27.771Z,6
2019-05-16T15:15:33.808Z,6.3
2019-05-16T15:20:43.158Z,6
2019-05-16T15:25:41.343Z,6
2019-05-16T15:30:50.401Z,6.3
2019-05-16T15:35:58.481Z,5.4
2019-05-16T15:41:03.785Z,4.8
2019-05-16T15:46:11.864Z,5.9
2019-05-16T15:51:11.881Z,5.7
2019-05-16T15:56:18.750Z,5.4
2019-05-16T16:01:26.868Z,5.3
2019-05-16T16:06:30.460Z,5.3
2019-05-16T16:11:37.258Z,6.1
2019-05-16T16:16:43.013Z,5.2
2019-05-16T16:21:50.424Z,5.9
2019-05-16T16:26:57.441Z,4.8
2019-05-16T16:32:02.522Z,4.9
2019-05-16T16:37:09.391Z,4.7
2019-05-16T16:42:15.475Z,5.1
2019-05-16T16:47:20.865Z,5.3
2019-05-16T16:52:28.281Z,4.5
2019-05-16T16:57:33.663Z,4.6
2019-05-16T17:02:41.833Z,4.7
2019-05-16T17:07:43.416Z,5
2019-05-16T17:12:48.292Z,4.9
2019-05-16T17:17:53.283Z,5
2019-05-16T17:23:00.784Z,12
2019-05-16T17:28:08.025Z,12.6
2019-05-16T17:33:17.823Z,7
2019-05-16T17:38:27.733Z,6
2019-05-16T17:43:32.960Z,5.3
2019-05-16T17:48:39.941Z,5.2
2019-05-16T17:53:44.959Z,5.9
2019-05-16T17:58:50.164Z,5.9
2019-05-16T18:03:57.153Z,6.3
2019-05-16T18:09:02.596Z,6.4
2019-05-16T18:14:12.341Z,6.2
2019-05-16T18:19:18.347Z,6.5
2019-05-16T18:24:23.611Z,6.8
2019-05-16T18:29:36.342Z,8.1
2019-05-16T18:34:34.508Z,8.2
2019-05-16T18:39:43.119Z,6.2
2019-05-16T18:44:50.825Z,4.7
2019-05-16T18:49:58.193Z,4.4
2019-05-16T18:55:03.428Z,4.6
2019-05-16T19:00:11.922Z,5.3
2019-05-16T19:05:18.047Z,5.1
2019-05-16T19:10:23.479Z,4.8
2019-05-16T19:15:30.372Z,6
2019-05-16T19:20:38.572Z,5.4
2019-05-16T19:25:43.521Z,4.9
2019-05-16T19:30:47.352Z,5.5
2019-05-16T19:35:52.440Z,5.3
2019-05-16T19:41:02.752Z,5.8
2019-05-16T19:46:08.507Z,6.6
2019-05-16T19:51:13.669Z,7.6
2019-05-16T19:56:20.693Z,7.3
2019-05-16T20:01:28.191Z,7.8
2019-05-16T20:06:33.386Z,7.8
2019-05-16T20:11:40.837Z,8.2
2019-05-16T20:16:48.035Z,8.4
2019-05-16T20:21:53.837Z,8.5
2019-05-16T20:27:01.905Z,7.8
2019-05-16T20:32:02.545Z,8.7
2019-05-16T20:37:10.036Z,8.3
2019-05-16T20:42:17.869Z,7.8
2019-05-16T20:47:23.272Z,8.5
2019-05-16T20:52:30.806Z,8.4
2019-05-16T20:57:38.376Z,8.4
2019-05-16T21:02:43.878Z,7.9
2019-05-16T21:07:53.756Z,7.6
2019-05-16T21:13:01.788Z,7.8
2019-05-16T21:18:07.494Z,7.2
2019-05-16T21:23:13.249Z,5.8
2019-05-16T21:28:13.578Z,6
2019-05-16T21:33:16.465Z,6.5
2019-05-16T21:38:23.648Z,6.4
2019-05-16T21:43:31.404Z,6.8
2019-05-16T21:48:37.905Z,6.4
2019-05-16T21:53:43.204Z,6.4
2019-05-16T21:58:49.277Z,7
2019-05-16T22:03:56.551Z,7
2019-05-16T22:09:01.008Z,8.2
2019-05-16T22:14:07.397Z,13.3
2019-05-16T22:19:11.320Z,9.2
2019-05-16T22:24:18.067Z,8.6
2019-05-16T22:29:23.556Z,9.3
2019-05-16T22:34:30.904Z,13
2019-05-16T22:39:37.971Z,11
2019-05-16T22:44:43.215Z,9.1
2019-05-16T22:49:50.116Z,9.4
2019-05-16T22:54:57.573Z,9
2019-05-16T23:00:02.910Z,9.2
2019-05-16T23:05:08.325Z,9.2
2019-05-16T23:15:20.993Z,9.3
2019-05-16T23:20:28.548Z,9.4
2019-05-16T23:25:33.996Z,9.3
2019-05-16T23:30:36.461Z,10.2
2019-05-16T23:35:42.209Z,9.4
2019-05-16T23:40:47.753Z,9.7
2019-05-16T23:45:53.065Z,9.1
2019-05-16T23:51:00.559Z,8.6
2019-05-16T23:56:08.156Z,8.8
